createdAt,value
2023-01-15T00:00:59.678Z,12.93
2023-01-15T00:04:04.957Z,11.02
2023-01-15T00:07:07.665Z,11.13
2023-01-15T00:10:11.273Z,11.10
2023-01-15T00:13:14.703Z,11.32
2023-01-15T00:16:21.287Z,12.30
2023-01-15T00:19:23.927Z,11.32
2023-01-15T00:22:26.889Z,11.90
2023-01-15T00:25:48.029Z,10.68
2023-01-15T00:28:50.719Z,13.43
2023-01-15T00:32:03.317Z,11.30
2023-01-15T00:35:06.903Z,11.93
2023-01-15T00:38:09.537Z,10.00
2023-01-15T00:41:13.709Z,9.52
2023-01-15T00:44:16.598Z,7.93
2023-01-15T00:47:19.607Z,9.90
2023-01-15T00:50:25.150Z,10.05
2023-01-15T00:53:28.053Z,11.13
2023-01-15T00:56:30.896Z,11.45
2023-01-15T00:59:33.670Z,9.82
2023-01-15T01:02:36.388Z,10.38
2023-01-15T01:05:39.168Z,14.60
2023-01-15T01:08:41.865Z,15.43
2023-01-15T01:11:44.945Z,14.18
2023-01-15T01:14:48.046Z,12.82
2023-01-15T01:17:51.894Z,13.73
2023-01-15T01:20:55.006Z,14.70
2023-01-15T01:24:01.443Z,14.23
2023-01-15T01:27:04.377Z,14.32
2023-01-15T01:30:07.923Z,14.32
2023-01-15T01:33:11.373Z,13.90
2023-01-15T01:36:14.073Z,15.25
2023-01-15T01:39:19.842Z,15.10
2023-01-15T01:42:23.011Z,15.85
2023-01-15T01:45:29.476Z,14.10
2023-01-15T01:48:34.608Z,15.67
2023-01-15T01:51:51.103Z,13.90
2023-01-15T01:54:54.395Z,15.18
2023-01-15T01:58:00.695Z,15.18
2023-01-15T02:01:06.041Z,15.00
2023-01-15T02:04:10.853Z,15.32
2023-01-15T02:07:15.480Z,14.90
2023-01-15T02:10:18.778Z,15.10
2023-01-15T02:13:36.209Z,14.50
2023-01-15T02:16:56.927Z,16.20
2023-01-15T02:20:12.729Z,14.10
2023-01-15T02:23:32.224Z,16.63
2023-01-15T02:27:07.355Z,15.43
2023-01-15T02:30:21.173Z,14.48
2023-01-15T02:34:01.649Z,15.27
2023-01-15T02:37:09.420Z,13.77
2023-01-15T02:40:14.347Z,13.15
2023-01-15T02:43:20.435Z,13.20
2023-01-15T02:46:29.162Z,14.48
2023-01-15T02:49:33.384Z,14.45
2023-01-15T02:52:47.359Z,13.43
2023-01-15T02:55:57.665Z,11.82
2023-01-15T02:59:10.925Z,10.77
2023-01-15T03:02:21.056Z,15.35
2023-01-15T03:05:31.251Z,13.30
2023-01-15T03:08:34.428Z,14.13
2023-01-15T03:11:44.612Z,12.52
2023-01-15T03:15:08.590Z,13.40
2023-01-15T03:18:15.561Z,13.57
2023-01-15T03:21:27.608Z,14.57
2023-01-15T03:24:42.595Z,13.07
2023-01-15T03:27:45.396Z,13.98
2023-01-15T03:30:52.122Z,13.57
2023-01-15T03:33:55.550Z,13.32
2023-01-15T03:36:59.740Z,12.48
2023-01-15T03:40:04.519Z,12.80
2023-01-15T03:43:34.066Z,12.73
2023-01-15T03:47:07.573Z,13.60
2023-01-15T03:50:27.744Z,13.40
2023-01-15T03:53:39.327Z,13.57
2023-01-15T03:56:58.470Z,13.63
2023-01-15T04:00:10.083Z,13.60
2023-01-15T04:03:22.720Z,7.95
2023-01-15T04:06:29.264Z,11.60
2023-01-15T04:09:38.091Z,12.10
2023-01-15T04:12:42.235Z,11.95
2023-01-15T04:15:46.707Z,13.20
2023-01-15T04:18:50.217Z,8.10
2023-01-15T04:21:54.980Z,9.38
2023-01-15T04:24:57.446Z,8.93
2023-01-15T04:28:00.685Z,10.30
2023-01-15T04:31:04.354Z,11.10
2023-01-15T04:34:07.475Z,11.32
2023-01-15T04:37:10.134Z,12.75
2023-01-15T04:40:33.501Z,8.70
2023-01-15T04:43:55.013Z,11.82
2023-01-15T04:47:00.091Z,12.43
2023-01-15T04:50:02.832Z,11.67
2023-01-15T04:53:06.653Z,12.95
2023-01-15T04:56:09.203Z,9.88
2023-01-15T04:59:12.551Z,10.10
2023-01-15T05:02:15.775Z,13.00
2023-01-15T05:05:19.205Z,11.43
2023-01-15T05:08:22.106Z,12.88
2023-01-15T05:11:24.899Z,11.45
2023-01-15T05:14:27.793Z,12.27
2023-01-15T05:17:33.015Z,11.98
2023-01-15T05:20:38.507Z,9.60
2023-01-15T05:23:41.440Z,12.95
2023-01-15T05:26:44.360Z,8.93
2023-01-15T05:29:48.155Z,9.63
2023-01-15T05:32:51.829Z,11.30
2023-01-15T05:35:54.739Z,9.40
2023-01-15T05:39:01.944Z,10.05
2023-01-15T05:42:05.106Z,8.77
2023-01-15T05:45:08.271Z,10.85
2023-01-15T05:48:11.825Z,7.47
2023-01-15T05:51:15.244Z,7.47
2023-01-15T05:54:20.894Z,10.00
2023-01-15T05:57:23.367Z,9.98
2023-01-15T06:00:30.411Z,9.60
2023-01-15T06:03:33.062Z,9.30
2023-01-15T06:06:36.730Z,9.65
2023-01-15T06:09:39.414Z,9.27
2023-01-15T06:12:42.423Z,9.90
2023-01-15T06:15:45.215Z,7.40
2023-01-15T06:18:48.364Z,9.48
2023-01-15T06:21:51.916Z,8.67
2023-01-15T06:24:55.059Z,7.82
2023-01-15T06:27:58.491Z,6.45
2023-01-15T06:31:06.318Z,10.07
2023-01-15T06:34:08.848Z,10.48
2023-01-15T06:37:12.229Z,9.75
2023-01-15T06:40:29.179Z,9.27
2023-01-15T06:43:50.479Z,10.82
2023-01-15T06:47:11.677Z,9.35
2023-01-15T06:50:16.147Z,8.05
2023-01-15T06:53:19.605Z,8.27
2023-01-15T06:56:22.521Z,7.75
2023-01-15T06:59:25.090Z,7.97
2023-01-15T07:02:28.292Z,6.97
2023-01-15T07:05:30.970Z,7.90
2023-01-15T07:08:34.630Z,7.05
2023-01-15T07:11:49.468Z,6.50
2023-01-15T07:14:52.790Z,8.13
2023-01-15T07:17:56.302Z,6.18
2023-01-15T07:20:59.811Z,5.90
2023-01-15T07:24:02.565Z,7.13
2023-01-15T07:27:06.376Z,5.30
2023-01-15T07:30:09.537Z,6.00
2023-01-15T07:33:14.962Z,6.90
2023-01-15T07:36:17.480Z,7.72
2023-01-15T07:39:20.864Z,9.43
2023-01-15T07:42:42.304Z,10.27
2023-01-15T07:46:07.933Z,6.55
2023-01-15T07:49:30.192Z,8.52
2023-01-15T07:52:33.553Z,10.55
2023-01-15T07:55:36.466Z,6.97
2023-01-15T07:58:39.203Z,7.72
2023-01-15T08:01:42.063Z,10.25
2023-01-15T08:04:45.611Z,9.67
2023-01-15T08:07:49.270Z,7.65
2023-01-15T08:11:12.087Z,9.02
2023-01-15T08:14:33.713Z,15.20
2023-01-15T08:17:37.834Z,11.32
2023-01-15T08:20:47.424Z,10.73
2023-01-15T08:23:51.437Z,9.70
2023-01-15T08:26:54.427Z,9.37
2023-01-15T08:29:57.653Z,9.77
2023-01-15T08:33:03.098Z,11.65
2023-01-15T08:36:06.387Z,12.13
2023-01-15T08:39:08.891Z,12.50
2023-01-15T08:42:12.058Z,12.30
2023-01-15T08:45:15.040Z,9.15
2023-01-15T08:48:17.699Z,12.55
2023-01-15T08:51:20.961Z,12.25
2023-01-15T08:54:26.979Z,9.70
2023-01-15T08:57:49.730Z,11.93
2023-01-15T09:01:16.262Z,12.18
2023-01-15T09:04:20.890Z,16.35
2023-01-15T09:07:23.948Z,14.20
2023-01-15T09:10:26.584Z,12.65
2023-01-15T09:13:30.484Z,8.57
2023-01-15T09:16:33.751Z,9.10
2023-01-15T09:19:37.318Z,12.60
2023-01-15T09:22:40.420Z,8.90
2023-01-15T09:26:01.567Z,9.85
2023-01-15T09:29:05.635Z,12.70
2023-01-15T09:32:10.214Z,11.88
2023-01-15T09:35:12.888Z,13.40
2023-01-15T09:38:17.365Z,12.70
2023-01-15T09:41:39.856Z,12.57
2023-01-15T09:45:01.690Z,14.35
2023-01-15T09:48:18.230Z,10.27
2023-01-15T09:51:47.867Z,22.50
2023-01-15T09:54:53.223Z,15.73
2023-01-15T09:57:59.468Z,10.93
2023-01-15T10:01:03.388Z,8.97
2023-01-15T10:04:38.181Z,10.30
2023-01-15T10:07:49.617Z,11.20
2023-01-15T10:10:57.891Z,11.13
2023-01-15T10:14:11.159Z,11.77
2023-01-15T10:17:22.779Z,9.55
2023-01-15T10:20:40.340Z,7.25
2023-01-15T10:23:56.288Z,9.35
2023-01-15T10:27:00.049Z,10.73
2023-01-15T10:30:18.340Z,8.20
2023-01-15T10:33:26.836Z,6.50
2023-01-15T10:36:37.111Z,8.73
2023-01-15T10:40:03.365Z,7.30
2023-01-15T10:43:18.457Z,8.60
2023-01-15T10:46:27.280Z,5.95
2023-01-15T10:49:30.964Z,8.43
2023-01-15T10:52:36.999Z,6.20
2023-01-15T10:55:50.356Z,5.45
2023-01-15T10:59:05.197Z,7.22
2023-01-15T11:02:29.828Z,8.10
2023-01-15T11:05:33.615Z,6.23
2023-01-15T11:09:07.327Z,7.88
2023-01-15T11:12:20.379Z,4.78
2023-01-15T11:15:44.368Z,5.90
2023-01-15T11:19:05.836Z,7.05
2023-01-15T11:22:14.211Z,6.03
2023-01-15T11:25:29.874Z,7.82
2023-01-15T11:28:36.628Z,11.73
2023-01-15T11:31:40.832Z,13.32
2023-01-15T11:34:53.632Z,7.80
2023-01-15T11:38:07.285Z,12.17
2023-01-15T11:41:54.197Z,9.52
2023-01-15T11:45:16.512Z,9.55
2023-01-15T11:48:41.233Z,9.47
2023-01-15T11:51:48.845Z,9.48
2023-01-15T11:54:54.519Z,7.55
2023-01-15T11:57:58.482Z,7.53
2023-01-15T12:01:01.787Z,9.32
2023-01-15T12:04:08.217Z,9.05
2023-01-15T12:07:14.246Z,9.98
2023-01-15T12:10:53.601Z,7.53
2023-01-15T12:14:31.685Z,11.90
2023-01-15T12:18:17.012Z,6.68
2023-01-15T12:21:45.165Z,10.43
2023-01-15T12:25:15.142Z,9.20
2023-01-15T12:28:32.469Z,10.48
2023-01-15T12:31:43.927Z,17.02
2023-01-15T12:34:56.615Z,11.30
2023-01-15T12:38:13.195Z,11.40
2023-01-15T12:41:26.372Z,10.82
2023-01-15T12:44:47.706Z,8.90
2023-01-15T12:47:58.698Z,9.98
2023-01-15T12:51:04.600Z,9.32
2023-01-15T12:54:15.413Z,12.27
2023-01-15T12:57:42.974Z,13.85
2023-01-15T13:00:46.278Z,19.17
2023-01-15T13:04:04.404Z,13.00
2023-01-15T13:07:33.963Z,8.13
2023-01-15T13:10:40.762Z,12.65
2023-01-15T13:13:58.397Z,12.07
2023-01-15T13:17:08.913Z,8.87
2023-01-15T13:20:43.868Z,11.45
2023-01-15T13:23:48.842Z,7.78
2023-01-15T13:27:09.948Z,10.30
2023-01-15T13:30:43.429Z,8.68
2023-01-15T13:33:56.252Z,6.78
2023-01-15T13:37:05.480Z,8.98
2023-01-15T13:40:23.853Z,7.72
2023-01-15T13:43:42.887Z,8.45
2023-01-15T13:46:48.681Z,10.40
2023-01-15T13:49:56.560Z,9.47
2023-01-15T13:53:25.755Z,7.00
2023-01-15T13:56:32.289Z,9.15
2023-01-15T13:59:41.221Z,10.03
2023-01-15T14:02:52.672Z,7.45
2023-01-15T14:05:58.432Z,9.73
2023-01-15T14:09:00.855Z,10.02
2023-01-15T14:12:27.868Z,8.75
2023-01-15T14:15:57.010Z,9.57
2023-01-15T14:19:21.952Z,10.23
2023-01-15T14:22:44.023Z,12.70
2023-01-15T14:25:55.027Z,11.13
2023-01-15T14:29:26.157Z,10.55
2023-01-15T14:32:57.219Z,11.27
2023-01-15T14:36:16.473Z,11.18
2023-01-15T14:39:25.181Z,9.20
2023-01-15T14:42:56.681Z,12.68
2023-01-15T14:46:11.500Z,12.93
2023-01-15T14:49:29.339Z,13.85
2023-01-15T14:52:32.792Z,11.70
2023-01-15T14:55:41.102Z,10.77
2023-01-15T14:59:36.076Z,12.65
2023-01-15T15:02:43.866Z,12.05
2023-01-15T15:05:47.744Z,13.20
2023-01-15T15:08:53.028Z,13.15
2023-01-15T15:12:20.942Z,12.25
2023-01-15T15:15:26.807Z,15.50
2023-01-15T15:18:42.556Z,18.02
2023-01-15T15:21:47.583Z,12.45
2023-01-15T15:24:54.288Z,13.35
2023-01-15T15:28:05.117Z,14.07
2023-01-15T15:31:10.566Z,15.70
2023-01-15T15:34:23.253Z,17.15
2023-01-15T15:37:28.451Z,18.80
2023-01-15T15:40:36.458Z,15.38
2023-01-15T15:44:16.275Z,17.88
2023-01-15T15:47:43.177Z,26.20
2023-01-15T15:50:48.176Z,15.27
2023-01-15T15:53:50.875Z,16.20
2023-01-15T15:56:57.562Z,17.13
2023-01-15T16:00:01.280Z,18.97
2023-01-15T16:03:18.290Z,19.13
2023-01-15T16:06:27.109Z,20.73
2023-01-15T16:09:30.319Z,27.50
2023-01-15T16:12:40.805Z,24.00
2023-01-15T16:15:44.264Z,22.92
2023-01-15T16:18:56.051Z,21.90
2023-01-15T16:21:58.823Z,29.60
2023-01-15T16:25:02.470Z,28.73
2023-01-15T16:28:05.877Z,25.08
2023-01-15T16:31:10.118Z,29.30
2023-01-15T16:34:22.537Z,27.73
2023-01-15T16:37:30.650Z,26.10
2023-01-15T16:40:37.419Z,23.50
2023-01-15T16:44:01.498Z,23.65
2023-01-15T16:47:05.667Z,18.52
2023-01-15T16:50:23.702Z,21.77
2023-01-15T16:53:29.729Z,21.67
2023-01-15T16:56:36.109Z,21.08
2023-01-15T16:59:44.849Z,20.58
2023-01-15T17:02:47.751Z,19.40
2023-01-15T17:05:54.479Z,20.27
2023-01-15T17:08:58.947Z,19.75
2023-01-15T17:12:35.659Z,19.57
2023-01-15T17:15:40.730Z,18.00
2023-01-15T17:18:44.630Z,20.85
2023-01-15T17:21:47.639Z,20.42
2023-01-15T17:24:52.772Z,20.25
2023-01-15T17:27:56.053Z,20.80
2023-01-15T17:31:01.669Z,21.42
2023-01-15T17:34:04.587Z,22.43
2023-01-15T17:37:07.768Z,21.90
2023-01-15T17:40:11.436Z,20.75
2023-01-15T17:43:16.332Z,20.97
2023-01-15T17:46:19.257Z,21.15
2023-01-15T17:49:22.979Z,24.88
2023-01-15T17:52:25.757Z,25.13
2023-01-15T17:55:47.259Z,25.17
2023-01-15T17:59:11.055Z,23.30
2023-01-15T18:02:34.676Z,23.17
2023-01-15T18:05:38.356Z,19.37
2023-01-15T18:08:44.400Z,18.63
2023-01-15T18:11:47.412Z,16.42
2023-01-15T18:14:50.480Z,17.73
2023-01-15T18:17:53.313Z,18.73
2023-01-15T18:20:56.265Z,17.25
2023-01-15T18:23:59.952Z,16.80
2023-01-15T18:27:03.004Z,17.58
2023-01-15T18:30:06.550Z,19.10
2023-01-15T18:33:09.706Z,21.90
2023-01-15T18:36:14.120Z,22.33
2023-01-15T18:39:17.025Z,22.40
2023-01-15T18:42:38.074Z,18.90
2023-01-15T18:45:59.965Z,19.67
2023-01-15T18:49:02.678Z,16.75
2023-01-15T18:52:24.988Z,15.68
2023-01-15T18:55:28.134Z,15.43
2023-01-15T18:58:31.417Z,14.65
2023-01-15T19:01:34.418Z,18.05
2023-01-15T19:04:38.478Z,11.40
2023-01-15T19:07:45.464Z,13.83
2023-01-15T19:10:48.407Z,13.02
2023-01-15T19:14:11.983Z,12.90
2023-01-15T19:17:40.127Z,14.50
2023-01-15T19:20:43.165Z,13.95
2023-01-15T19:23:47.440Z,10.32
2023-01-15T19:26:50.807Z,11.65
2023-01-15T19:29:53.644Z,11.65
2023-01-15T19:32:56.736Z,11.98
2023-01-15T19:35:59.934Z,11.95
2023-01-15T19:39:03.253Z,12.13
2023-01-15T19:42:24.897Z,9.00
2023-01-15T19:45:46.421Z,10.98
2023-01-15T19:49:07.750Z,9.63
2023-01-15T19:52:29.056Z,7.55
2023-01-15T19:55:33.402Z,9.43
2023-01-15T19:58:37.184Z,9.20
2023-01-15T20:01:40.671Z,8.77
2023-01-15T20:04:45.719Z,10.70
2023-01-15T20:07:48.839Z,10.27
2023-01-15T20:10:51.740Z,10.17
2023-01-15T20:13:54.963Z,17.95
2023-01-15T20:16:57.348Z,17.80
2023-01-15T20:20:00.344Z,19.50
2023-01-15T20:23:03.008Z,16.52
2023-01-15T20:26:08.219Z,13.77
2023-01-15T20:29:11.237Z,15.00
2023-01-15T20:32:14.628Z,9.60
2023-01-15T20:35:23.641Z,13.23
2023-01-15T20:38:26.686Z,12.73
2023-01-15T20:41:48.048Z,11.63
2023-01-15T20:44:53.600Z,11.07
2023-01-15T20:48:11.643Z,12.63
2023-01-15T20:51:14.779Z,9.63
2023-01-15T20:54:17.798Z,15.52
2023-01-15T20:57:20.503Z,12.70
2023-01-15T21:00:24.064Z,11.10
2023-01-15T21:03:27.303Z,9.10
2023-01-15T21:06:30.051Z,8.85
2023-01-15T21:09:32.849Z,11.32
2023-01-15T21:12:36.397Z,11.30
2023-01-15T21:15:39.499Z,14.93
2023-01-15T21:18:45.050Z,13.82
2023-01-15T21:21:48.017Z,10.87
2023-01-15T21:24:51.601Z,13.23
2023-01-15T21:27:54.623Z,14.38
2023-01-15T21:30:57.963Z,12.00
2023-01-15T21:34:00.849Z,12.60
2023-01-15T21:37:03.330Z,13.68
2023-01-15T21:40:06.676Z,21.35
2023-01-15T21:43:48.071Z,17.37
2023-01-15T21:46:50.848Z,14.27
2023-01-15T21:49:53.506Z,14.80
2023-01-15T21:52:56.282Z,12.17
2023-01-15T21:55:58.745Z,14.95
2023-01-15T21:59:01.497Z,12.00
2023-01-15T22:02:05.022Z,16.33
2023-01-15T22:05:08.726Z,15.98
2023-01-15T22:08:11.552Z,15.57
2023-01-15T22:11:14.221Z,16.13
2023-01-15T22:14:17.909Z,13.83
2023-01-15T22:17:21.172Z,13.68
2023-01-15T22:20:23.766Z,13.85
2023-01-15T22:23:27.369Z,14.77
2023-01-15T22:26:30.838Z,15.82
2023-01-15T22:29:38.315Z,16.40
2023-01-15T22:32:40.871Z,16.20
2023-01-15T22:35:43.717Z,16.67
2023-01-15T22:38:47.187Z,13.57
2023-01-15T22:42:08.599Z,14.05
2023-01-15T22:45:11.353Z,14.13
2023-01-15T22:48:14.025Z,16.98
2023-01-15T22:51:16.764Z,14.68
2023-01-15T22:54:19.942Z,15.27
2023-01-15T22:57:23.488Z,14.55
2023-01-15T23:00:26.320Z,16.35
2023-01-15T23:03:29.114Z,12.70
2023-01-15T23:06:31.788Z,18.17
2023-01-15T23:09:35.228Z,16.15
2023-01-15T23:12:39.640Z,17.95
2023-01-15T23:15:42.497Z,15.57
2023-01-15T23:18:46.165Z,16.02
2023-01-15T23:21:48.553Z,15.48
2023-01-15T23:24:51.347Z,14.70
2023-01-15T23:27:53.768Z,15.82
2023-01-15T23:30:56.551Z,19.42
2023-01-15T23:33:59.510Z,18.58
2023-01-15T23:37:03.339Z,18.45
2023-01-15T23:40:07.164Z,15.07
2023-01-15T23:43:33.020Z,14.77
2023-01-15T23:46:35.892Z,16.10
2023-01-15T23:49:39.483Z,16.20
2023-01-15T23:52:41.884Z,16.33
2023-01-15T23:55:44.765Z,15.20
2023-01-15T23:58:47.704Z,16.88
